Texas Shootout - TRAINING

Station: HENRIETTA TX - T Race

Distance: 52 Miles    

Release: 23-Nov-2021 08:35

Weather Release:    Arrival:

Wind at Release:     Wind at Arrival:

Temp at Release: °    Temp at Arrival: °

Lofts: 63

Birds: 280

Clocked: 280

Good Luck to Everyone!
Drops Pos Breeder Pigeon Name Color Sex Ent Arrival Speed To Win Elg Pd
1 Hillbilly Loft - TX 2267-AU21-AA be 743 x 374 yskout BC C 1 09:35:49.10 1504.809 00:00:00 Yes
2 Team Taylor's & Berry's - TX 3182-AU21-TEXA BB C 1 09:35:51.10 1503.985 00:00:02 Yes
3 Siegel's - LA 21393-AU21-A BB C 1 09:35:53.80 1502.874 00:00:05 Yes
4 Nemeth Family Loft - CA 0890-AU21-NEME BB H 1 09:35:54.30 1502.668 00:00:05 Yes
5 Crestview Loft - TX 21773-AU21-CRES BB H 1 09:35:55.60 1502.134 00:00:06 Yes
6 Butch Shoop - TX 0185-AU21-QUES BB H 1 09:36:01.00 1499.918 00:00:12 Yes
7 Hillbilly Loft - TX 2253-AU21-AA 13846 X 13728 Golden Pr BC H 2 09:36:02.70 1499.222 00:00:14 Yes
8 Blue Dog Express - TX 0464-AU21-DENT BB H 1 09:36:03.70 1498.813 00:00:15 Yes
9 Dolly's Loft - TX 21766-AU21-CRES BB H 1 09:36:08.00 1497.056 00:00:19 Yes
10 Crestview Loft - TX 21770-AU21-CRES BB H 2 09:36:16.30 1493.676 00:00:27 Yes
11 Norman Benoit - KS 2491-AU21-TEXA BCPD H 1 09:36:16.80 1493.473 00:00:28 Yes
12 H & H Loft - TX 4339-AU21-VITA BBWF C 1 09:36:17.50 1493.188 00:00:28 Yes
13 Patrick Kwan - CA 100731-AU21-ARPU BCFP H 1 09:36:17.80 1493.067 00:00:29 Yes
14 Wartick Family Loft - KS 0204-AU21-AIR BB C 1 09:36:18.70 1492.701 00:00:30 Yes
15 Hillbilly Loft - TX 2261-AU21-AA 37584 X 315 V/H-Houbin BCWF H 3 09:36:20.40 1492.012 00:00:31 Yes
16 Nestle Loft - TX 30250-AU21-AA PNSP H 1 09:36:21.50 1491.566 00:00:32 Yes
17 Johnson / Perron - LA 0661-AU21-LAF BC H 1 09:36:23.10 1490.918 00:00:34 Yes
18 B S B Loft - OK 10205-AU21-FOYS BC H 1 09:36:23.50 1490.756 00:00:34 Yes
19 Elton Dinga - TX 19986-AU21-AA Klaas 443 x Purdey 1004 DC H 1 09:36:23.80 1490.635 00:00:35 Yes
19 Bad Company - OK 0133-AU21-TULS BB H 1 09:36:23.80 1490.635 00:00:35 Yes
21 Bad Company - OK 0129-AU21-TULS BB H 2 09:36:24.40 1490.392 00:00:35 Yes
22 Siegel's - LA 21429-AU21-A BB H 2 09:36:24.80 1490.230 00:00:36 Yes
23 Patrick Kwan - CA 2184-AU21-KWAN BC H 2 09:36:25.10 1490.109 00:00:36 Yes
24 C.C.C. & Son - KS 2178-AU21-CCC BBPD H 1 09:36:25.40 1489.988 00:00:36 Yes
24 Wolf Pac - TX 0459-AU21-DENT BB C 1 09:36:25.40 1489.988 00:00:36 Missing
26 Hi-Cal Connection - CA 0741-AU21-SD BB H 1 09:36:25.70 1489.866 00:00:37 Yes
27 Corso & Jean - LA 81347-AU21-ARPU BBWF C 1 09:36:26.20 1489.664 00:00:37 Yes
28 Elton Dinga - TX 2324-AU21-UTEN Black Power 1905 x 12089 BB C 2 09:36:26.60 1489.503 00:00:37 Yes
28 Jojos International - TX 6275-AU21-GJOJ BB C 1 09:36:26.60 1489.503 00:00:37 Yes
30 English Syndicate - UK 19456-GB21-E BC C 1 09:36:26.90 1489.381 00:00:38 Yes
31 English Syndicate - UK 19460-GB21-E BWFP C 2 09:36:28.30 1488.816 00:00:39 Yes
32 The Red Dirt Gang - OK 29645-AU21-FOYS BBWF C 1 09:36:28.70 1488.655 00:00:40 Yes
33 Wood Loft - TX 0774-AU21-DENT BLK C 1 09:36:29.00 1488.533 00:00:40 Yes
34 Patrick Kwan - CA 2191-AU21-KWAN BB C 3 09:36:30.00 1488.130 00:00:41 Yes
35 Butch Shoop - TX 0095-AU21-GTF BB C 2 09:36:31.00 1487.727 00:00:42 Yes
36 SouthernLegacyLoft - TX 2111-AU21-SLL DBB C 1 09:36:31.70 1487.445 00:00:43 Yes
37 Elton Dinga - TX 19983-AU21-AA Olympiade003 x Engelen984 BB H 3 09:36:32.80 1487.002 00:00:44 Yes
38 Wood Loft - TX 0772-AU21-DENT BC C 2 09:36:33.10 1486.881 00:00:44 Yes
38 Nemelka Racing Pigeon Loft - UT 1125-AU21-NRPL Argenton x Debacker 😎 BB C 1 09:36:33.10 1486.881 00:00:44 Yes
40 Any Given Day Loft - TX 21159-AU21-ANYG DCPD H 1 09:36:33.60 1486.680 00:00:44 Yes
41 The Red Dirt Gang - OK 10234-AU21-FOYS BC C 2 09:36:33.90 1486.559 00:00:45 Yes
42 Westfall/Lindsay - MO 21259-AU21-BOOT BB H 1 09:36:34.20 1486.438 00:00:45 Yes
42 Nemelka Racing Pigeon Loft - UT 1121-AU21-NRPL Psycho Killer x Yula 😎 RC H 2 09:36:34.20 1486.438 00:00:45 Yes
44 Larry Payne - TX 0630-AU21-LPL BB C 1 09:36:34.50 1486.317 00:00:45 Yes
45 Malone's Loft - TX 0329-AU21-DENT Warhawk BB C 1 09:36:35.10 1486.076 00:00:46 Yes
46 Nemelka Racing Pigeon Loft - UT 1116-AU21-NRPL FH x 5029 😎 BC H 3 09:36:35.40 1485.956 00:00:46 Yes
46 The New Orleans Boys - LA 21125-AU21-MET HERCULES SLWF C 1 09:36:35.40 1485.956 00:00:46 Yes
46 Westfall/Lindsay - MO 21213-AU21-BOOT BB H 2 09:36:35.40 1485.956 00:00:46 Yes
49 Hollywood Honey - CA 0718-AU21-SD BB C 1 09:36:36.00 1485.714 00:00:47 Yes
50 Dea Loft - AZ 0033-AU21-DEA BC H 1 09:36:36.10 1485.674 00:00:47 Yes
50 C F L - LA 1082-AU21-CFL BC H 1 09:36:36.10 1485.674 00:00:47 Yes
52 Tx Lin Loft - TX 0071-AU21-TXLN BB C 1 09:36:36.40 1485.554 00:00:47 Yes
52 Patrick Kwan - CA 2195-AU21-KWAN BC C 4 09:36:36.40 1485.554 00:00:47 Yes
54 Timberline Speed Loft - TX 0142-AU21-HALE BB C 1 09:36:36.90 1485.353 00:00:48 Yes
55 Baudy Loft - LA 0135-AU21-DELT BCPD H 1 09:36:37.30 1485.192 00:00:48 Yes
55 Wartick Family Loft - KS 9519-AU21-ARPU BBWF H 2 09:36:37.30 1485.192 00:00:48 Yes
57 H & H Loft - TX 4301-AU21-VITA BB C 2 09:36:37.70 1485.031 00:00:49 Yes
57 Corso & Jean - LA 81356-AU21-ARPU BSLT H 2 09:36:37.70 1485.031 00:00:49 Yes
59 The New Orleans Boys - LA 21107-AU21-MET ZEUS BBPD C 2 09:36:38.30 1484.790 00:00:49 Yes
60 Dan & Greg Coury - AZ 1175-AU21-PEGA BB C 1 09:36:38.80 1484.590 00:00:50 Yes
60 Venn Family Loft - WY 11529-AU21-ARPU BBWF C 1 09:36:38.80 1484.590 00:00:50 Yes
62 Sky Dancer Loft - TX 0780-AU21-WWC BCSP C 1 09:36:39.50 1484.309 00:00:50 Yes
63 Timberline Speed Loft - TX 81214-AU21-ARPU BB C 2 09:36:40.00 1484.108 00:00:51 Yes
64 Flying D Loft - TX 1420-AU21-FLYN E 147 / Lin 8878 BB H 1 09:36:40.30 1483.988 00:00:51 Yes
65 Gossett & Son - TX 0105-AU21-GOSS BB C 1 09:36:40.90 1483.747 00:00:52 Yes
66 The New Orleans Boys - LA 21179-AU21-MET DC H 3 09:36:42.00 1483.306 00:00:53 Yes
66 Redtex - TX 0353-AU21-REDT all gas no brakes BB C 1 09:36:42.00 1483.306 00:00:53 Yes
68 Any Given Day Loft - TX 21178-AU21-ANYG BC C 2 09:36:42.40 1483.146 00:00:53 Yes
69 Hollywood Honey - CA 0736-AU21-SD BC H 2 09:36:42.80 1482.986 00:00:54 Yes
69 Dekeratry Loft - TX 0521-AU21-HOT SLWF C 1 09:36:42.80 1482.986 00:00:54 Yes
71 Wartick Family Loft - KS 0216-AU21-AIR BSPL H 3 09:36:43.10 1482.866 00:00:54 Yes
72 Bill Kluge - TX 1110-AU21-COLD 7 BB C 1 09:36:43.20 1482.826 00:00:54 Yes
72 Brown & Evans - TX 0984-AU21-WF BB H 1 09:36:43.20 1482.826 00:00:54 Yes
74 Dan & Greg Coury - AZ 0828-AU21-AONE BBWF C 2 09:36:43.60 1482.666 00:00:54 Yes
75 Westfall/Lindsay - MO 21218-AU21-BOOT BB C 3 09:36:43.90 1482.545 00:00:55 Yes
76 C F L - LA 1068-AU21-CFL BC H 2 09:36:44.20 1482.425 00:00:55 Yes
77 Rick Smith - TX 2163-AU21-SMIT BB C 1 09:36:44.60 1482.265 00:00:55 Missing
77 The New Orleans Boys - LA 21185-AU21-MET BBWF H 4 09:36:44.60 1482.265 00:00:55 Yes
79 Dolly's Loft - TX 21765-AU21-CRES BB C 2 09:36:44.70 1482.225 00:00:56 Yes
80 Tx Lin Loft - TX 0096-AU21-TXLI BBWF H 2 09:36:45.10 1482.065 00:00:56 Yes
81 Crestview Loft - TX 21761-AU21-CRES BB H 3 09:36:45.40 1481.945 00:00:56 Yes
82 Butch Shoop - TX 0097-AU21-GTF BB H 3 09:36:45.50 1481.905 00:00:56 Yes
82 Gossett & Son - TX 0119-AU21-GOSS BB H 2 09:36:45.50 1481.905 00:00:56 Yes
84 Blue Dog Express - TX 0463-AU21-DENT BB C 2 09:36:45.60 1481.865 00:00:56 Yes
85 R & D Racing 2 - ON 1844-AU21-AA BB H 1 09:36:45.80 1481.785 00:00:57 Yes
86 R & D Racing 2 - ON 1875-AU21-AA BWFP C 2 09:36:46.20 1481.625 00:00:57 Yes
87 Nestle Loft - TX 30247-AU21-AA BB H 2 09:36:46.60 1481.465 00:00:58 Yes
88 Zong Jing Tang - FL 11875-AU21-GHC BC C 1 09:36:46.90 1481.346 00:00:58 Yes
89 Callahan Loft - MO 0332-AU21-AA RC C 1 09:36:47.30 1481.186 00:00:58 Yes
90 Siegel's - LA 21421-AU21-A BBWF H 3 09:36:47.90 1480.946 00:00:59 Yes
91 Wartick Family Loft - KS 9527-AU21-ARPU BB H 4 09:36:48.30 1480.786 00:00:59 Yes
92 Any Given Day Loft - TX 21146-AU21-ANYG BC C 3 09:36:48.40 1480.746 00:00:59 Yes
93 Mc Laughlin Lofts - MA 0195-AU21-MCLO BWF H 1 09:36:49.00 1480.507 00:01:00 Yes
94 Sky Dancer Loft - TX 0777-AU21-WWC BC H 2 09:36:49.10 1480.467 00:01:00 Yes
95 Tex-Mex Loft - TX 1190-AU21-NSL Achilles or Polyxena GRIZ H 1 09:36:51.80 1479.390 00:01:03 Yes
96 Brown & Evans - TX 0987-AU21-WF BBWF C 2 09:36:52.40 1479.151 00:01:03 Yes
97 Corso & Jean - LA 81385-AU21-ARPU BSPL H 3 09:36:57.70 1477.042 00:01:09 Yes
98 Nestle Loft - TX 30248-AU21-AA BBPD H 3 09:36:58.50 1476.724 00:01:09 Yes
99 Baudy Loft - LA 0136-AU21-DELT BCPD H 2 09:36:58.80 1476.605 00:01:10 Yes
100 Clear Springs Loft - FL 0130-AU21-WARD RC C 1 09:36:59.10 1476.486 00:01:10 Yes

There are 280 bird records

Note: These Race Results are unofficial and subject to change until verified by the Race Committee and declared final.